Thermal, CA

2:09 PM PST on March 01, 2015 (GMT -0800)
Desert Resorts Regional | Change Station
CLOSE
Current Station
Airport
Location: Thermal,
Elevation: -115 ft
Nearby Weather Stations

Elev -115 ft 33.63 °N, 116.16 °W | Updated 17 minutes ago

Overcast
Overcast
57 °F
Feels Like 57 °F
N
7
Wind Variable Wind from NW

Today
High -- | Low -- °F
--% Chance of Precip.
Yesterday
High -- | Low -- °F
Precip. -- in
6:13 AM 5:41 PM
Waxing Gibbous, 87% visible
Pressure 29.96 in
Visibility 10.0 miles
Clouds Overcast 7000 ft
Dew Point 48 °F
Humidity 72%
Rainfall 0.12 in
Snow Depth Not available.
UV 2 out of 12
Pollen .80 out of 12
Air Quality Not available.
Flu Activity Not available.
METAR KTRM 012152Z AUTO 32006KT 10SM -RA OVC070 14/09 A2996 RMK AO2 SLP145 P0001 T01390089 TSNO

More Conditions Fewer Conditions

Pressure 29.96 in
Visibility 10.0 miles
Clouds Overcast 7000 ft
Dew Point 48 °F
Humidity 72%
Rainfall 0.12 in
Snow Depth Not available.
UV 2 out of 12
Pollen .80 out of 12
Air Quality Not available.
Flu Activity Not available.
METAR KTRM 012152Z AUTO 32006KT 10SM -RA OVC070 14/09 A2996 RMK AO2 SLP145 P0001 T01390089 TSNO

More Conditions Fewer Conditions

10-Day Weather Forecast

Almanac

Astronomy

Mar. 01, 2015 Rise Set
Actual Time
Civil Twilight
Nautical Twilight
Astronomical Twilight
Moon
Length of Visible Light
Length of Day
Tomorrow will be .
, % of the Moon is Illuminated

Today's Extremes

State Highs State Lows

Community

WunderPhotos

Upload Photos

1,801,585 photos uploaded!

WunderBlogs® & News

Nearby

Air Quality

  Air Quality AQ Index Pollutant
Not available.

Snow Depth

Station Depth Elevation

Earthquake Activity

City Distance Mag. Time & Date
Minimum magnitude displayed is 2.5.

Coastal Water Temperatures

Place Temperature

Nearby Weather Stations